Time;durP1;ratioP1;P1;durP2;ratioP2;P2;SDS_P1;SDS_P2;PMS_P1;PMS_P2;Temp;Humidity;BMP_temperature;BMP_pressure;BME280_temperature;BME280_humidity;BME280_pressure;Samples;Min_cycle;Max_cycle;Signal;HPM_P1;HPM_P2
2022/07/10 00:02:13;;;;;;;7.70;2.58;;;18.10;90.60;;;;;;5034029;28;20156;-74
2022/07/10 00:04:41;;;;;;;6.15;2.50;;;18.10;90.60;;;;;;5035191;28;20041;-73
2022/07/10 00:07:09;;;;;;;7.13;2.72;;;18.10;90.70;;;;;;5033759;28;20060;-74
2022/07/10 00:09:37;;;;;;;8.40;2.60;;;18.00;90.80;;;;;;5035733;28;20045;-73
2022/07/10 00:12:05;;;;;;;7.10;2.70;;;18.00;90.80;;;;;;5035432;28;20052;-74
2022/07/10 00:14:32;;;;;;;;;;;17.90;90.80;;;;;;5035314;28;20464;-74
2022/07/10 00:17:00;;;;;;;8.77;2.80;;;17.90;91.20;;;;;;5018740;28;19921;-73
2022/07/10 00:19:27;;;;;;;6.45;2.67;;;17.90;90.70;;;;;;5035772;28;20038;-74
2022/07/10 00:21:55;;;;;;;6.68;2.58;;;17.90;90.70;;;;;;5034454;28;20049;-74
2022/07/10 00:24:22;;;;;;;11.10;2.80;;;17.90;90.70;;;;;;5035546;28;20048;-73
2022/07/10 00:26:50;;;;;;;7.50;2.97;;;17.80;90.70;;;;;;5034655;28;20498;-74
2022/07/10 00:29:18;;;;;;;10.48;3.10;;;17.80;90.70;;;;;;5034916;28;20044;-73
2022/07/10 00:31:45;;;;;;;8.43;2.75;;;17.70;90.70;;;;;;5035740;28;20057;-73
2022/07/10 00:34:13;;;;;;;7.68;2.65;;;17.70;90.80;;;;;;5023695;28;20053;-73
2022/07/10 00:36:40;;;;;;;6.05;2.13;;;17.70;90.80;;;;;;5015608;28;20374;-73
2022/07/10 00:39:08;;;;;;;7.28;1.90;;;17.70;90.90;;;;;;5015501;28;20055;-73
2022/07/10 00:41:36;;;;;;;7.35;2.45;;;17.60;90.90;;;;;;5014657;28;20469;-73
2022/07/10 00:44:04;;;;;;;10.63;2.40;;;17.60;90.90;;;;;;4998617;28;20053;-74
2022/07/10 00:46:32;;;;;;;7.60;2.03;;;17.60;90.90;;;;;;5015381;28;20054;-73
2022/07/10 00:49:00;;;;;;;;;;;17.60;90.90;;;;;;4981122;28;20396;-74
2022/07/10 00:51:30;;;;;;;10.73;2.38;;;17.70;91.40;;;;;;4998203;28;19947;-73
2022/07/10 00:53:58;;;;;;;10.32;2.78;;;17.60;90.80;;;;;;5014438;28;20057;-73
2022/07/10 00:56:27;;;;;;;7.93;2.78;;;17.50;90.90;;;;;;5015334;28;20357;-74
2022/07/10 00:58:56;;;;;;;7.60;2.45;;;17.50;90.90;;;;;;4981850;28;20046;-74
2022/07/10 01:01:24;;;;;;;8.45;2.90;;;17.50;91.00;;;;;;4980600;28;20050;-73
2022/07/10 01:03:52;;;;;;;7.78;2.45;;;17.40;91.00;;;;;;5015707;28;20049;-73
2022/07/10 01:06:20;;;;;;;5.63;2.40;;;17.50;91.10;;;;;;5015620;28;20170;-73
2022/07/10 01:08:47;;;;;;;7.03;2.28;;;17.40;91.10;;;;;;4996872;28;20052;-73
2022/07/10 01:11:15;;;;;;;8.05;2.78;;;17.40;91.20;;;;;;5015196;28;20053;-73
2022/07/10 01:13:43;;;;;;;6.25;2.30;;;17.30;91.20;;;;;;4996932;28;20453;-73
2022/07/10 01:16:12;;;;;;;9.45;2.20;;;17.30;91.20;;;;;;5014935;28;20365;-74
2022/07/10 01:18:40;;;;;;;7.20;2.13;;;17.30;91.20;;;;;;5014925;28;20050;-74
2022/07/10 01:21:32;;;;;;;4.70;2.28;;;17.20;91.30;;;;;;5013757;28;20056;-74
2022/07/10 01:24:05;;;;;;;6.05;2.30;;;17.20;91.40;;;;;;5014817;28;20050;-73
2022/07/10 01:26:34;;;;;;;8.93;2.30;;;17.20;91.20;;;;;;5015541;28;20053;-73
2022/07/10 01:29:06;;;;;;;8.55;2.72;;;17.20;91.10;;;;;;5013646;28;20042;-74
2022/07/10 01:31:34;;;;;;;9.02;2.60;;;17.10;91.20;;;;;;4981842;28;20049;-74
2022/07/10 01:34:06;;;;;;;8.75;3.78;;;17.10;91.20;;;;;;5011017;28;20056;-74
2022/07/10 01:36:34;;;;;;;10.27;4.15;;;17.10;91.20;;;;;;5033593;28;20046;-74
2022/07/10 01:39:02;;;;;;;11.18;4.22;;;17.10;91.30;;;;;;5034235;28;20054;-73
2022/07/10 01:41:30;;;;;;;12.57;4.47;;;17.00;91.30;;;;;;5034353;28;20460;-74
2022/07/10 01:43:58;;;;;;;14.40;4.57;;;17.00;91.30;;;;;;5038163;28;20068;-73
2022/07/10 01:46:26;;;;;;;8.85;4.18;;;17.00;91.40;;;;;;5037610;28;20052;-73
2022/07/10 01:48:53;;;;;;;12.93;4.60;;;17.00;91.40;;;;;;5037550;28;20045;-73
2022/07/10 01:51:21;;;;;;;8.00;3.80;;;16.90;91.40;;;;;;5021358;28;20046;-73
2022/07/10 01:53:49;;;;;;;11.55;4.25;;;16.90;91.50;;;;;;5020531;28;20491;-73
2022/07/10 01:56:17;;;;;;;11.95;4.20;;;16.90;91.60;;;;;;5037452;28;20042;-73
2022/07/10 01:58:45;;;;;;;7.57;3.60;;;16.80;91.50;;;;;;5021422;28;20374;-73
2022/07/10 02:01:12;;;;;;;13.40;4.03;;;16.80;91.70;;;;;;5019991;28;20045;-73
2022/07/10 02:06:26;;;;;;;16.35;3.92;;;16.70;91.80;;;;;;5038487;28;20045;-74
2022/07/10 02:08:54;;;;;;;12.63;4.20;;;16.70;91.80;;;;;;5037048;28;20363;-73
2022/07/10 02:11:22;;;;;;;12.02;4.28;;;16.70;91.90;;;;;;5037426;28;20491;-73
2022/07/10 02:13:50;;;;;;;14.15;4.57;;;16.60;92.00;;;;;;5036069;28;20495;-74
2022/07/10 02:16:17;;;;;;;;;;;16.60;92.00;;;;;;5038472;28;20052;-73
2022/07/10 02:18:45;;;;;;;9.77;4.28;;;16.60;92.60;;;;;;5037984;28;20261;-73
2022/07/10 02:21:13;;;;;;;12.70;4.30;;;16.60;92.00;;;;;;5037026;28;20380;-74
2022/07/10 02:23:41;;;;;;;9.10;4.10;;;16.50;92.00;;;;;;5038057;28;20049;-73
2022/07/10 02:26:08;;;;;;;7.88;3.60;;;16.50;92.10;;;;;;5037830;28;20483;-73
2022/07/10 02:28:36;;;;;;;9.00;3.58;;;16.50;92.20;;;;;;5036654;28;20041;-74
2022/07/10 02:31:04;;;;;;;9.10;3.83;;;16.50;92.20;;;;;;5036810;28;20376;-73
2022/07/10 02:33:31;;;;;;;12.35;3.95;;;16.40;92.30;;;;;;5036070;28;20045;-73
2022/07/10 02:35:59;;;;;;;10.43;4.05;;;16.40;92.30;;;;;;5036994;28;20049;-73
2022/07/10 02:38:27;;;;;;;12.32;3.95;;;16.40;92.40;;;;;;5037561;28;20369;-74
2022/07/10 02:40:55;;;;;;;8.52;3.90;;;16.30;92.40;;;;;;5036514;28;20060;-74
2022/07/10 02:43:22;;;;;;;9.10;3.70;;;16.40;92.40;;;;;;5037623;28;20045;-73
2022/07/10 02:45:50;;;;;;;8.52;4.00;;;16.30;92.50;;;;;;5037332;28;20058;-73
2022/07/10 02:48:18;;;;;;;7.88;3.83;;;16.30;92.50;;;;;;5035196;28;20061;-74
2022/07/10 02:50:45;;;;;;;9.38;3.70;;;16.30;92.50;;;;;;5037426;28;20049;-74
2022/07/10 02:53:13;;;;;;;9.02;3.05;;;16.30;92.50;;;;;;5036238;28;20052;-73
2022/07/10 02:55:40;;;;;;;6.40;2.30;;;16.20;92.50;;;;;;5036275;28;20057;-73
2022/07/10 02:58:09;;;;;;;7.47;3.17;;;16.20;92.60;;;;;;5036275;28;20056;-73
2022/07/10 03:00:37;;;;;;;7.57;2.60;;;16.20;92.60;;;;;;5035068;28;20046;-74
2022/07/10 03:03:05;;;;;;;6.03;2.60;;;16.20;92.60;;;;;;5037237;28;20053;-73
2022/07/10 03:05:33;;;;;;;6.65;2.65;;;16.10;92.60;;;;;;5020137;28;20354;-73
2022/07/10 03:08:00;;;;;;;5.50;2.50;;;16.10;92.70;;;;;;5035962;28;20045;-73
2022/07/10 03:10:28;;;;;;;5.85;2.42;;;16.10;92.80;;;;;;5036924;28;20042;-74
2022/07/10 03:12:55;;;;;;;7.00;2.30;;;16.00;92.70;;;;;;5037158;28;20449;-73
2022/07/10 03:15:23;;;;;;;6.20;2.08;;;16.00;92.70;;;;;;5035802;28;20041;-74
2022/07/10 03:17:50;;;;;;;4.90;2.05;;;16.00;92.80;;;;;;5036905;28;20042;-74
2022/07/10 03:20:18;;;;;;;4.10;2.10;;;16.00;92.80;;;;;;5035828;28;20244;-73
2022/07/10 03:22:47;;;;;;;6.85;2.35;;;15.90;92.70;;;;;;5036645;28;20045;-73
2022/07/10 03:25:14;;;;;;;;;;;15.90;92.80;;;;;;5036958;28;20052;-74
2022/07/10 03:27:42;;;;;;;5.10;1.92;;;15.80;93.10;;;;;;5034727;28;19921;-73
2022/07/10 03:30:10;;;;;;;5.68;1.90;;;15.80;92.70;;;;;;5036584;28;20068;-73
2022/07/10 03:32:38;;;;;;;4.57;1.98;;;15.80;92.70;;;;;;5035927;28;20048;-73
2022/07/10 03:35:06;;;;;;;6.28;2.03;;;15.70;92.70;;;;;;5018095;28;20060;-74
2022/07/10 03:37:33;;;;;;;5.20;1.80;;;15.70;92.60;;;;;;5036617;28;20052;-73
2022/07/10 03:40:01;;;;;;;6.43;1.75;;;15.70;92.70;;;;;;5034473;28;20057;-74
2022/07/10 03:42:28;;;;;;;7.15;2.22;;;15.70;92.70;;;;;;5036428;28;20053;-73
2022/07/10 03:44:56;;;;;;;5.30;2.13;;;15.60;92.60;;;;;;5036818;28;20053;-73
2022/07/10 03:47:24;;;;;;;8.50;2.20;;;15.50;92.60;;;;;;5035234;28;20045;-74
2022/07/10 03:49:51;;;;;;;6.25;2.05;;;15.50;92.60;;;;;;5036416;28;20372;-74
2022/07/10 03:52:19;;;;;;;5.15;2.28;;;15.40;92.60;;;;;;5036103;28;20045;-73
2022/07/10 03:54:47;;;;;;;5.75;2.00;;;15.40;92.60;;;;;;5034395;28;20441;-73
2022/07/10 04:00:00;;;;;;;6.95;2.13;;;15.30;92.50;;;;;;5017660;28;20068;-74
2022/07/10 04:02:39;;;;;;;7.60;2.00;;;15.30;92.40;;;;;;5036143;28;20053;-74
2022/07/10 04:05:08;;;;;;;5.13;1.80;;;15.30;92.50;;;;;;5034832;28;20376;-73
2022/07/10 04:07:38;;;;;;;5.45;1.88;;;15.30;92.30;;;;;;5035089;28;20047;-73
2022/07/10 04:10:06;;;;;;;4.75;1.70;;;15.30;92.20;;;;;;5034854;28;20044;-73
2022/07/10 04:12:34;;;;;;;;;;;15.30;92.20;;;;;;5035485;28;20037;-73
2022/07/10 04:15:01;;;;;;;5.82;1.80;;;15.20;92.30;;;;;;5034626;28;19921;-74
2022/07/10 04:17:31;;;;;;;4.18;1.63;;;15.20;92.20;;;;;;5035680;28;20061;-73
2022/07/10 04:20:00;;;;;;;4.38;1.70;;;15.20;92.20;;;;;;5035251;28;20049;-74
2022/07/10 04:22:27;;;;;;;5.53;1.70;;;15.20;92.40;;;;;;5035527;28;20046;-73
2022/07/10 04:24:55;;;;;;;6.93;1.60;;;15.20;92.10;;;;;;5035652;28;20469;-73
2022/07/10 04:27:23;;;;;;;5.63;1.88;;;15.20;92.10;;;;;;5033684;28;20045;-73
2022/07/10 04:29:50;;;;;;;3.70;1.35;;;15.20;92.00;;;;;;5035548;28;20045;-73
2022/07/10 04:32:18;;;;;;;6.15;1.60;;;15.20;92.10;;;;;;5034920;28;20057;-73
2022/07/10 04:34:46;;;;;;;5.53;1.60;;;15.10;92.10;;;;;;5019547;28;20054;-74
2022/07/10 04:37:13;;;;;;;9.43;1.60;;;15.10;92.00;;;;;;5015605;28;20042;-73
2022/07/10 04:39:41;;;;;;;6.57;1.70;;;15.10;92.10;;;;;;5015844;28;20050;-73
2022/07/10 04:42:09;;;;;;;6.13;1.85;;;15.10;92.10;;;;;;4997316;28;20141;-73
2022/07/10 04:44:37;;;;;;;6.15;1.35;;;15.10;92.10;;;;;;5016144;28;20061;-73
2022/07/10 04:47:05;;;;;;;5.53;1.63;;;15.20;92.10;;;;;;4997176;28;20373;-73
2022/07/10 04:49:34;;;;;;;4.25;1.30;;;15.20;92.00;;;;;;5015433;28;20061;-73
2022/07/10 04:52:01;;;;;;;;;;;15.20;91.90;;;;;;4982462;28;20042;-74
2022/07/10 04:54:29;;;;;;;3.13;1.40;;;15.20;92.00;;;;;;5014342;28;19929;-73
2022/07/10 04:56:57;;;;;;;3.80;1.55;;;15.20;91.80;;;;;;4998667;28;20499;-73
2022/07/10 04:59:24;;;;;;;5.10;1.38;;;15.30;91.80;;;;;;4998283;28;20046;-73
2022/07/10 05:01:52;;;;;;;4.78;1.60;;;15.30;91.80;;;;;;4997063;28;20045;-73
2022/07/10 05:04:20;;;;;;;5.97;1.52;;;15.30;91.80;;;;;;5015535;28;20050;-74
2022/07/10 05:06:47;;;;;;;5.63;1.50;;;15.30;91.80;;;;;;4997263;28;20053;-73
2022/07/10 05:09:15;;;;;;;6.63;1.50;;;15.40;91.90;;;;;;5015190;28;20045;-73
2022/07/10 05:11:42;;;;;;;3.83;1.33;;;15.40;91.80;;;;;;5015011;28;20052;-73
2022/07/10 05:14:10;;;;;;;4.43;1.38;;;15.40;91.80;;;;;;5014303;28;20042;-73
2022/07/10 05:16:38;;;;;;;3.83;1.20;;;15.40;91.80;;;;;;4997978;28;20044;-73
2022/07/10 05:19:06;;;;;;;9.68;1.52;;;15.50;91.80;;;;;;4998147;28;20046;-73
2022/07/10 05:21:33;;;;;;;4.45;1.40;;;15.50;91.80;;;;;;4996564;28;20057;-74
2022/07/10 05:24:01;;;;;;;4.47;1.30;;;15.50;91.70;;;;;;5015673;28;20057;-73
2022/07/10 05:26:29;;;;;;;5.80;1.40;;;15.60;91.70;;;;;;4997815;28;20046;-73
2022/07/10 05:28:56;;;;;;;5.50;1.63;;;15.70;91.60;;;;;;4996881;28;20042;-73
2022/07/10 05:31:26;;;;;;;4.63;1.40;;;15.70;91.40;;;;;;4982274;28;20071;-74
2022/07/10 05:33:54;;;;;;;5.45;1.50;;;15.70;91.50;;;;;;5013677;28;20049;-73
2022/07/10 05:36:22;;;;;;;4.97;1.45;;;15.80;91.40;;;;;;4981699;28;20487;-73
2022/07/10 05:38:50;;;;;;;3.88;1.30;;;15.80;91.30;;;;;;4998000;28;20045;-73
2022/07/10 05:41:17;;;;;;;4.65;1.40;;;15.90;91.30;;;;;;4996514;28;20065;-73
2022/07/10 05:43:45;;;;;;;3.03;1.15;;;15.90;91.20;;;;;;5014967;28;20046;-74
2022/07/10 05:46:12;;;;;;;4.57;1.23;;;16.00;91.10;;;;;;4997641;28;20053;-73
2022/07/10 05:48:40;;;;;;;6.10;1.38;;;16.00;91.10;;;;;;4996430;28;20508;-73
2022/07/10 05:51:08;;;;;;;3.15;1.10;;;16.10;90.90;;;;;;5015062;28;20045;-73
2022/07/10 05:53:56;;;;;;;4.10;1.40;;;16.10;90.80;;;;;;5013639;28;20461;-73
2022/07/10 05:56:24;;;;;;;4.88;1.10;;;16.20;90.60;;;;;;4997701;28;20380;-73
2022/07/10 05:58:51;;;;;;;6.28;1.10;;;16.30;90.60;;;;;;4997491;28;20485;-73
2022/07/10 06:01:19;;;;;;;5.22;1.10;;;16.30;90.60;;;;;;4996481;28;20090;-73
2022/07/10 06:03:47;;;;;;;2.92;1.20;;;16.40;90.60;;;;;;5015174;28;20050;-73
2022/07/10 06:06:15;;;;;;;4.30;1.27;;;16.40;90.40;;;;;;5014939;28;20065;-73
2022/07/10 06:08:44;;;;;;;3.58;0.93;;;16.50;90.30;;;;;;4980248;28;20054;-73
2022/07/10 06:11:12;;;;;;;3.55;1.17;;;16.50;90.20;;;;;;5014471;28;20049;-74
2022/07/10 06:13:40;;;;;;;5.50;1.27;;;16.60;90.00;;;;;;4996135;28;20457;-73
2022/07/10 06:16:08;;;;;;;2.67;0.95;;;16.60;89.80;;;;;;4981954;28;20057;-73
2022/07/10 06:18:35;;;;;;;6.85;1.45;;;16.70;89.10;;;;;;4997767;28;20042;-73
2022/07/10 06:21:04;;;;;;;4.70;1.00;;;16.70;88.90;;;;;;5013319;28;20050;-73
2022/07/10 06:23:31;;;;;;;4.13;1.00;;;16.80;88.60;;;;;;4997706;28;20361;-73
2022/07/10 06:25:59;;;;;;;3.05;1.10;;;16.90;88.40;;;;;;4997482;28;20061;-73
2022/07/10 06:28:27;;;;;;;2.25;0.85;;;16.90;88.20;;;;;;4999218;28;20354;-74
2022/07/10 06:30:54;;;;;;;5.10;1.10;;;17.00;87.80;;;;;;5001160;28;20053;-73
2022/07/10 06:33:27;;;;;;;2.00;0.77;;;17.00;87.50;;;;;;5004754;28;20049;-73
2022/07/10 06:35:55;;;;;;;8.00;1.00;;;17.10;87.30;;;;;;5036874;28;20041;-74
2022/07/10 06:38:23;;;;;;;3.03;0.88;;;17.10;87.00;;;;;;5020603;28;20045;-73
2022/07/10 06:40:52;;;;;;;2.80;0.80;;;17.20;86.80;;;;;;5035533;28;20057;-73
2022/07/10 06:43:20;;;;;;;2.80;0.88;;;17.30;86.40;;;;;;5037529;28;20072;-73
2022/07/10 06:45:48;;;;;;;3.75;1.05;;;17.30;86.00;;;;;;5036894;28;20388;-73
2022/07/10 06:48:16;;;;;;;;;;;17.40;85.90;;;;;;5036144;28;20049;-73
2022/07/10 06:50:44;;;;;;;;;;;17.40;84.70;;;;;;5037059;28;19921;-74
2022/07/10 06:53:12;;;;;;;3.70;0.90;;;17.50;83.80;;;;;;5036782;28;19932;-73
2022/07/10 06:55:39;;;;;;;3.10;0.80;;;17.60;84.60;;;;;;5036214;28;20461;-73
2022/07/10 06:58:07;;;;;;;1.20;0.60;;;17.60;84.10;;;;;;5019940;28;20053;-73
2022/07/10 07:00:35;;;;;;;3.38;1.00;;;17.70;84.00;;;;;;5036555;28;20468;-73
2022/07/10 07:03:03;;;;;;;3.45;0.80;;;17.70;83.70;;;;;;5036686;28;20468;-73
2022/07/10 07:05:30;;;;;;;4.45;0.95;;;17.80;83.70;;;;;;5036356;28;20049;-74
2022/07/10 07:07:58;;;;;;;5.35;1.00;;;17.90;83.40;;;;;;5035008;28;20061;-73
2022/07/10 07:10:26;;;;;;;3.00;0.80;;;17.90;83.20;;;;;;5037052;28;20049;-74
2022/07/10 07:12:53;;;;;;;2.92;0.98;;;17.90;83.30;;;;;;5037174;28;20052;-73
2022/07/10 07:15:23;;;;;;;3.83;1.00;;;17.90;83.50;;;;;;5035799;28;20041;-73
2022/07/10 07:17:57;;;;;;;5.72;1.08;;;18.00;83.60;;;;;;5019912;28;20050;-73
2022/07/10 07:23:12;;;;;;;3.80;0.97;;;18.10;83.80;;;;;;5019520;28;20054;-73
2022/07/10 07:25:44;;;;;;;5.57;1.00;;;18.10;83.80;;;;;;5003175;28;20053;-73
2022/07/10 07:28:12;;;;;;;3.38;1.20;;;18.10;84.20;;;;;;5035785;28;20053;-74
2022/07/10 07:30:39;;;;;;;1.90;0.80;;;18.20;84.50;;;;;;5036729;28;20042;-74
2022/07/10 07:33:07;;;;;;;4.22;1.25;;;18.20;84.50;;;;;;5034156;28;20049;-74
2022/07/10 07:35:35;;;;;;;4.68;1.00;;;18.30;84.60;;;;;;4982210;28;20468;-74
2022/07/10 07:38:03;;;;;;;3.85;0.98;;;18.30;84.50;;;;;;4999524;28;20049;-73
2022/07/10 07:40:31;;;;;;;4.60;1.20;;;18.40;84.60;;;;;;4982268;28;20053;-73
2022/07/10 07:42:59;;;;;;;6.75;1.50;;;18.40;84.80;;;;;;5016807;28;20053;-74
2022/07/10 07:45:27;;;;;;;4.57;1.20;;;18.50;84.90;;;;;;4999455;28;20050;-74
2022/07/10 07:47:56;;;;;;;6.22;1.20;;;18.50;84.80;;;;;;5014570;28;20037;-73
2022/07/10 07:50:26;;;;;;;6.60;1.13;;;18.50;85.00;;;;;;5016809;28;20053;-74
2022/07/10 07:52:54;;;;;;;5.88;1.10;;;18.60;85.00;;;;;;4999558;28;20356;-74
2022/07/10 07:55:22;;;;;;;4.72;1.27;;;18.70;84.90;;;;;;4998052;28;20488;-74
2022/07/10 07:57:55;;;;;;;2.90;1.15;;;18.70;84.90;;;;;;4999242;28;20046;-73
2022/07/10 08:00:25;;;;;;;3.80;1.13;;;18.70;85.10;;;;;;5015645;28;20041;-74
2022/07/10 08:02:54;;;;;;;4.75;1.30;;;18.80;85.30;;;;;;4999274;28;20357;-74
2022/07/10 08:05:25;;;;;;;5.43;1.23;;;18.80;85.00;;;;;;4998908;28;20050;-74
2022/07/10 08:07:55;;;;;;;5.05;1.30;;;18.90;85.00;;;;;;4997919;28;20042;-74
2022/07/10 08:10:26;;;;;;;5.20;1.55;;;18.90;85.10;;;;;;4998801;28;20368;-73
2022/07/10 08:12:54;;;;;;;3.25;1.08;;;19.00;85.10;;;;;;4999389;28;20045;-74
2022/07/10 08:15:22;;;;;;;;;;;19.00;85.10;;;;;;4998419;28;20342;-74
2022/07/10 08:17:52;;;;;;;4.35;1.13;;;19.00;84.90;;;;;;4982807;28;19921;-73
2022/07/10 08:20:20;;;;;;;5.70;1.50;;;19.10;84.90;;;;;;5014856;28;20694;-74
2022/07/10 08:22:48;;;;;;;5.43;1.60;;;19.10;85.10;;;;;;5014858;28;20060;-74
2022/07/10 08:25:22;;;;;;;6.53;1.33;;;19.10;85.30;;;;;;4999154;28;20349;-74
2022/07/10 08:27:50;;;;;;;3.55;1.20;;;19.20;85.30;;;;;;4997497;28;20050;-73
2022/07/10 08:30:18;;;;;;;4.28;1.30;;;19.20;85.00;;;;;;4999004;28;20048;-74
2022/07/10 08:32:45;;;;;;;4.03;1.30;;;19.20;84.70;;;;;;4998786;28;20050;-74
2022/07/10 08:35:14;;;;;;;6.60;1.40;;;19.30;84.40;;;;;;5031109;28;20072;-73
2022/07/10 08:37:44;;;;;;;4.43;1.50;;;19.40;84.00;;;;;;5034409;28;20162;-74
2022/07/10 08:40:13;;;;;;;3.75;1.40;;;19.40;84.20;;;;;;5034814;28;20053;-74
2022/07/10 08:42:45;;;;;;;3.50;1.52;;;19.50;84.20;;;;;;5034956;28;20068;-73
2022/07/10 08:45:14;;;;;;;5.35;1.30;;;19.60;83.90;;;;;;5035481;28;20046;-74
2022/07/10 08:47:44;;;;;;;4.07;1.65;;;19.70;84.10;;;;;;5034161;28;20053;-74
2022/07/10 08:50:22;;;;;;;4.15;1.38;;;19.70;83.80;;;;;;5034527;28;20049;-74
2022/07/10 08:53:16;;;;;;;6.38;1.38;;;19.80;83.40;;;;;;5035278;28;20042;-74
2022/07/10 08:55:44;;;;;;;5.63;1.50;;;19.80;83.40;;;;;;5034674;28;20045;-74
2022/07/10 08:58:13;;;;;;;4.22;1.65;;;19.90;83.30;;;;;;5034201;28;20049;-73
2022/07/10 09:00:41;;;;;;;4.25;1.70;;;19.90;83.40;;;;;;5017180;28;20365;-74
2022/07/10 09:03:08;;;;;;;6.18;1.60;;;20.00;83.40;;;;;;5034647;28;20045;-74
2022/07/10 09:05:36;;;;;;;4.75;1.48;;;20.00;83.10;;;;;;5034288;28;20053;-74
2022/07/10 09:08:04;;;;;;;4.10;1.50;;;20.00;82.90;;;;;;5033120;28;20060;-74
2022/07/10 09:10:32;;;;;;;7.30;1.50;;;20.00;83.10;;;;;;5034874;28;20064;-74
2022/07/10 09:13:04;;;;;;;5.03;1.40;;;20.00;83.00;;;;;;5034720;28;20037;-74
2022/07/10 09:15:32;;;;;;;4.75;1.42;;;20.10;83.10;;;;;;5033818;28;20064;-73
2022/07/10 09:18:08;;;;;;;5.32;1.48;;;20.20;82.80;;;;;;5034300;28;20052;-73
2022/07/10 09:20:40;;;;;;;3.97;1.30;;;20.20;82.80;;;;;;5033599;28;20038;-75
2022/07/10 09:23:18;;;;;;;5.28;1.50;;;20.30;82.60;;;;;;5034805;28;20060;-73
2022/07/10 09:25:50;;;;;;;3.05;1.20;;;20.30;82.00;;;;;;5034446;28;20460;-73
2022/07/10 09:28:20;;;;;;;5.38;1.42;;;20.40;82.20;;;;;;5033670;28;20045;-74
2022/07/10 09:30:48;;;;;;;6.47;1.40;;;20.50;81.80;;;;;;5034807;28;20506;-74
2022/07/10 09:33:27;;;;;;;4.05;1.40;;;20.50;81.00;;;;;;5030914;28;20050;-74
2022/07/10 09:36:05;;;;;;;5.97;1.70;;;20.50;81.70;;;;;;4997892;28;20069;-74
2022/07/10 09:38:48;;;;;;;6.00;1.65;;;20.40;81.50;;;;;;4998139;28;20059;-74
2022/07/10 09:41:21;;;;;;;5.93;1.50;;;20.80;81.40;;;;;;5013905;28;20046;-73
2022/07/10 09:43:57;;;;;;;3.67;1.15;;;20.90;81.10;;;;;;5014826;28;20053;-74
2022/07/10 09:46:36;;;;;;;5.55;1.38;;;20.90;80.20;;;;;;4997830;28;20042;-74
2022/07/10 09:49:14;;;;;;;3.95;1.27;;;21.00;80.10;;;;;;5014067;28;20053;-74
2022/07/10 09:51:45;;;;;;;4.15;1.50;;;21.10;80.00;;;;;;5014828;28;20057;-73
2022/07/10 09:54:18;;;;;;;3.97;1.20;;;21.10;80.20;;;;;;4997145;28;20049;-74
2022/07/10 09:56:47;;;;;;;3.47;1.25;;;21.20;80.00;;;;;;5014775;28;20044;-74
2022/07/10 09:59:16;;;;;;;4.88;1.30;;;21.20;79.70;;;;;;4997491;28;20381;-74
2022/07/10 10:01:47;;;;;;;4.65;1.40;;;21.30;79.60;;;;;;5014025;28;20042;-74
2022/07/10 10:04:18;;;;;;;4.20;1.30;;;21.30;78.90;;;;;;5001642;28;20050;-74
2022/07/10 10:06:49;;;;;;;5.78;1.55;;;21.40;78.90;;;;;;5000525;28;20045;-74
2022/07/10 10:09:29;;;;;;;4.32;1.10;;;21.30;78.80;;;;;;5001499;28;20053;-74
2022/07/10 10:12:02;;;;;;;7.45;1.30;;;21.30;78.50;;;;;;5001450;28;20048;-74
2022/07/10 10:14:33;;;;;;;4.47;1.45;;;21.40;79.30;;;;;;4984219;28;20041;-74
2022/07/10 10:17:03;;;;;;;5.00;1.77;;;21.50;79.70;;;;;;5001274;28;20060;-74
2022/07/10 10:22:19;;;;;;;3.28;1.42;;;21.70;78.50;;;;;;4999806;28;20496;-73
2022/07/10 10:24:47;;;;;;;8.43;1.70;;;21.80;78.40;;;;;;4984997;28;20049;-74
2022/07/10 10:27:15;;;;;;;6.50;1.60;;;21.80;77.70;;;;;;4999993;28;20053;-74
2022/07/10 10:29:45;;;;;;;4.90;1.50;;;21.80;78.00;;;;;;5017960;28;20527;-73
2022/07/10 10:32:12;;;;;;;4.75;1.50;;;21.90;78.30;;;;;;5000769;28;20052;-74
2022/07/10 10:34:49;;;;;;;3.28;1.52;;;21.90;77.80;;;;;;5024538;28;20480;-74
2022/07/10 10:37:36;;;;;;;4.82;1.52;;;22.00;78.20;;;;;;5036977;28;20372;-74
2022/07/10 10:40:06;;;;;;;6.00;1.50;;;22.10;77.10;;;;;;5036892;28;20041;-74
2022/07/10 10:42:38;;;;;;;3.72;1.60;;;22.20;78.30;;;;;;5036818;28;20057;-74
2022/07/10 10:45:37;;;;;;;4.28;1.50;;;22.30;77.60;;;;;;5037946;28;20499;-74
2022/07/10 10:48:06;;;;;;;3.88;1.60;;;22.40;76.70;;;;;;5035751;28;20056;-74
2022/07/10 10:50:55;;;;;;;6.47;1.90;;;22.40;77.20;;;;;;5037217;28;20049;-74
2022/07/10 10:53:31;;;;;;;4.28;1.38;;;22.60;76.00;;;;;;5036202;28;20045;-74
2022/07/10 10:56:02;;;;;;;7.03;1.60;;;22.80;75.00;;;;;;5036713;28;20053;-74
2022/07/10 10:58:41;;;;;;;5.95;1.83;;;23.00;75.20;;;;;;5020254;28;20049;-74
2022/07/10 11:01:25;;;;;;;5.15;1.50;;;23.20;73.90;;;;;;5036142;28;20053;-74
2022/07/10 11:04:09;;;;;;;7.38;1.85;;;23.30;74.30;;;;;;5036683;28;20056;-73
2022/07/10 11:06:41;;;;;;;5.43;1.50;;;23.30;73.20;;;;;;5037473;28;20072;-75
2022/07/10 11:09:31;;;;;;;4.85;1.40;;;23.20;73.50;;;;;;5036290;28;20068;-74
2022/07/10 11:12:05;;;;;;;5.30;1.40;;;23.20;72.40;;;;;;5037641;28;20045;-74
2022/07/10 11:14:39;;;;;;;3.38;1.40;;;23.20;73.50;;;;;;5034982;28;20050;-74
2022/07/10 11:17:08;;;;;;;5.25;1.35;;;23.20;73.40;;;;;;5036294;28;20041;-74
2022/07/10 11:19:37;;;;;;;4.60;1.63;;;23.30;73.30;;;;;;5037022;28;20046;-74
2022/07/10 11:22:13;;;;;;;4.07;1.60;;;23.30;72.90;;;;;;5035586;28;20057;-74
2022/07/10 11:24:46;;;;;;;2.50;1.48;;;23.40;73.40;;;;;;5036145;28;20052;-74
2022/07/10 11:27:42;;;;;;;3.83;1.40;;;23.40;72.20;;;;;;5035213;28;20050;-74
2022/07/10 11:30:10;;;;;;;5.50;1.55;;;23.30;72.00;;;;;;5035818;28;20357;-74
2022/07/10 11:32:39;;;;;;;3.63;1.25;;;23.30;72.80;;;;;;5035589;28;20064;-74
2022/07/10 11:35:14;;;;;;;4.78;1.10;;;23.20;72.30;;;;;;5017664;28;20050;-74
2022/07/10 11:37:52;;;;;;;6.88;1.38;;;23.20;71.60;;;;;;5017134;28;20050;-74
2022/07/10 11:40:20;;;;;;;4.35;1.40;;;23.20;70.80;;;;;;5015682;28;20305;-74
2022/07/10 11:42:55;;;;;;;4.60;1.77;;;23.20;71.50;;;;;;5016779;28;20061;-74
2022/07/10 11:45:29;;;;;;;6.05;1.63;;;23.30;72.20;;;;;;4999964;28;20054;-74
2022/07/10 11:47:57;;;;;;;3.03;1.45;;;23.40;71.60;;;;;;5015634;28;20404;-74
2022/07/10 11:50:26;;;;;;;4.00;1.38;;;23.50;71.90;;;;;;4999432;28;20053;-74
2022/07/10 11:52:54;;;;;;;4.13;1.30;;;23.50;71.80;;;;;;4999547;28;20060;-74
2022/07/10 11:55:22;;;;;;;;;;;23.60;71.50;;;;;;5015586;28;20049;-73
2022/07/10 11:57:50;;;;;;;2.78;1.20;;;23.60;71.00;;;;;;5016303;28;19929;-74
2022/07/10 12:00:23;;;;;;;2.63;1.30;;;23.70;71.60;;;;;;4998004;28;20057;-74
2022/07/10 12:02:52;;;;;;;4.45;1.50;;;23.80;71.70;;;;;;4999502;28;20053;-74
2022/07/10 12:05:51;;;;;;;4.10;1.65;;;24.00;71.10;;;;;;5015325;28;20358;-74
2022/07/10 12:08:19;;;;;;;4.30;1.30;;;24.00;69.50;;;;;;4970382;28;20054;-74
2022/07/10 12:10:46;;;;;;;3.83;1.40;;;24.10;69.10;;;;;;4999333;28;20380;-74
2022/07/10 12:13:17;;;;;;;3.90;1.42;;;24.10;68.20;;;;;;5016242;28;20384;-74
2022/07/10 12:15:45;;;;;;;4.70;1.50;;;24.10;69.10;;;;;;4998812;28;20057;-74
2022/07/10 12:18:20;;;;;;;4.10;1.80;;;24.20;69.30;;;;;;5015900;28;20376;-74
2022/07/10 12:20:50;;;;;;;4.35;1.55;;;24.30;68.50;;;;;;4982115;28;20046;-74
2022/07/10 12:23:19;;;;;;;5.15;1.40;;;24.40;68.40;;;;;;4998735;28;20054;-74
2022/07/10 12:25:49;;;;;;;4.97;1.50;;;24.40;68.00;;;;;;5015511;28;20050;-74
2022/07/10 12:28:18;;;;;;;3.15;1.63;;;24.40;68.10;;;;;;4997651;28;20057;-74
2022/07/10 12:30:50;;;;;;;3.97;1.67;;;24.40;67.90;;;;;;4998770;28;20058;-74
2022/07/10 12:33:23;;;;;;;3.30;1.67;;;24.40;68.60;;;;;;4998475;28;20050;-75
2022/07/10 12:35:53;;;;;;;3.15;1.50;;;24.40;68.30;;;;;;4998839;28;20493;-74
2022/07/10 12:38:24;;;;;;;7.45;1.80;;;24.50;67.60;;;;;;5015908;28;20056;-74
2022/07/10 12:41:12;;;;;;;6.63;1.70;;;24.60;67.00;;;;;;4981475;28;20050;-74
2022/07/10 12:43:46;;;;;;;5.57;1.33;;;24.60;67.10;;;;;;4983173;28;20049;-74
2022/07/10 12:46:15;;;;;;;5.70;1.73;;;25.60;67.70;;;;;;5015764;28;20065;-75
2022/07/10 12:49:00;;;;;;;4.18;1.60;;;24.70;66.90;;;;;;4981531;28;20049;-74
2022/07/10 12:51:30;;;;;;;6.57;1.40;;;24.80;66.70;;;;;;4998231;28;20045;-74
2022/07/10 12:54:35;;;;;;;5.43;2.90;;;24.90;66.50;;;;;;4983993;28;20045;-74
2022/07/10 12:57:04;;;;;;;2.97;1.20;;;25.00;66.30;;;;;;4982366;28;20384;-73
2022/07/10 12:59:36;;;;;;;5.00;1.65;;;25.10;66.40;;;;;;4998163;28;20050;-74
2022/07/10 13:02:21;;;;;;;5.07;1.30;;;25.10;66.10;;;;;;5014168;28;20049;-75
2022/07/10 13:04:56;;;;;;;2.05;1.05;;;25.20;65.80;;;;;;5015716;28;20050;-74
2022/07/10 13:07:35;;;;;;;4.65;1.50;;;25.30;65.90;;;;;;5013637;28;20057;-74
2022/07/10 13:10:07;;;;;;;3.88;1.88;;;25.40;65.60;;;;;;5015211;28;20092;-74
2022/07/10 13:12:35;;;;;;;3.40;1.50;;;25.50;66.20;;;;;;5014996;28;20065;-74
2022/07/10 13:15:03;;;;;;;3.85;2.08;;;25.60;65.40;;;;;;4980723;28;20491;-74